createdAt,value
2022-11-07T00:00:11.137Z,1003.95
2022-11-07T00:02:58.062Z,1003.95
2022-11-07T00:05:31.145Z,1003.97
2022-11-07T00:08:03.854Z,1003.98
2022-11-07T00:10:37.238Z,1003.98
2022-11-07T00:13:10.229Z,1004.00
2022-11-07T00:15:43.168Z,1004.00
2022-11-07T00:18:16.526Z,1003.99
2022-11-07T00:20:49.114Z,1004.01
2022-11-07T00:23:22.233Z,1004.02
2022-11-07T00:25:55.154Z,1004.05
2022-11-07T00:28:28.199Z,1004.07
2022-11-07T00:31:01.134Z,1004.10
2022-11-07T00:33:34.225Z,1004.13
2022-11-07T00:36:07.180Z,1004.14
2022-11-07T00:38:40.248Z,1004.15
2022-11-07T00:41:19.149Z,1004.18
2022-11-07T00:43:52.288Z,1004.20
2022-11-07T00:46:25.175Z,1004.22
2022-11-07T00:49:04.221Z,1004.23
2022-11-07T00:51:37.177Z,1004.23
2022-11-07T00:54:10.224Z,1004.24
2022-11-07T00:56:43.189Z,1004.25
2022-11-07T00:59:18.250Z,1004.29
2022-11-07T01:01:51.341Z,1004.31
2022-11-07T01:04:24.314Z,1004.36
2022-11-07T01:06:57.499Z,1004.41
2022-11-07T01:09:31.208Z,1004.45
2022-11-07T01:12:04.311Z,1004.48
2022-11-07T01:14:37.320Z,1004.50
2022-11-07T01:17:11.247Z,1004.53
2022-11-07T01:19:44.488Z,1004.55
2022-11-07T01:22:17.259Z,1004.57
2022-11-07T01:24:50.280Z,1004.59
2022-11-07T01:27:23.240Z,1004.61
2022-11-07T01:29:56.288Z,1004.61
2022-11-07T01:32:29.279Z,1004.62
2022-11-07T01:35:02.311Z,1004.63
2022-11-07T01:37:35.303Z,1004.63
2022-11-07T01:40:08.225Z,1004.62
2022-11-07T01:42:41.251Z,1004.59
2022-11-07T01:45:14.257Z,1004.57
2022-11-07T01:47:47.335Z,1004.55
2022-11-07T01:50:22.944Z,1004.53
2022-11-07T01:52:53.381Z,1004.53
2022-11-07T01:55:26.245Z,1004.53
2022-11-07T01:57:59.333Z,1004.52
2022-11-07T02:00:32.224Z,1004.53
2022-11-07T02:03:05.466Z,1004.54
2022-11-07T02:05:38.274Z,1004.51
2022-11-07T02:08:11.268Z,1004.53
2022-11-07T02:10:44.204Z,1004.56
2022-11-07T02:13:17.612Z,1004.56
2022-11-07T02:15:50.358Z,1004.55
2022-11-07T02:18:23.383Z,1004.54
2022-11-07T02:21:02.357Z,1004.54
2022-11-07T02:23:35.356Z,1004.52
2022-11-07T02:26:08.352Z,1004.49
2022-11-07T02:28:41.439Z,1004.44
2022-11-07T02:31:14.356Z,1004.41
2022-11-07T02:33:47.411Z,1004.40
2022-11-07T02:36:20.425Z,1004.40
2022-11-07T02:38:53.422Z,1004.39
2022-11-07T02:41:26.452Z,1004.38
2022-11-07T02:43:59.352Z,1004.35
2022-11-07T02:46:32.440Z,1004.35
2022-11-07T02:49:05.371Z,1004.36
2022-11-07T02:51:38.513Z,1004.35
2022-11-07T02:54:11.435Z,1004.34
2022-11-07T02:56:58.419Z,1004.34
2022-11-07T02:59:31.387Z,1004.35
2022-11-07T03:02:04.535Z,1004.37
2022-11-07T03:04:37.342Z,1004.35
2022-11-07T03:07:10.383Z,1004.36
2022-11-07T03:09:43.427Z,1004.37
2022-11-07T03:12:16.480Z,1004.39
2022-11-07T03:14:49.504Z,1004.37
2022-11-07T03:17:22.378Z,1004.37
2022-11-07T03:19:55.426Z,1004.35
2022-11-07T03:22:28.497Z,1004.36
2022-11-07T03:25:01.401Z,1004.35
2022-11-07T03:27:34.535Z,1004.35
2022-11-07T03:30:07.422Z,1004.35
2022-11-07T03:32:40.500Z,1004.35
2022-11-07T03:35:13.395Z,1004.38
2022-11-07T03:37:46.505Z,1004.40
2022-11-07T03:40:19.391Z,1004.41
2022-11-07T03:42:52.535Z,1004.42
2022-11-07T03:45:25.489Z,1004.43
2022-11-07T03:47:58.482Z,1004.44
2022-11-07T03:50:31.478Z,1004.45
2022-11-07T03:53:24.872Z,1004.43
2022-11-07T03:55:51.288Z,1004.46
2022-11-07T03:58:24.448Z,1004.46
2022-11-07T04:00:57.509Z,1004.50
2022-11-07T04:03:30.602Z,1004.53
2022-11-07T04:06:03.498Z,1004.57
2022-11-07T04:08:36.703Z,1004.58
2022-11-07T04:11:10.441Z,1004.61
2022-11-07T04:13:43.574Z,1004.65
2022-11-07T04:16:17.862Z,1004.69
2022-11-07T04:18:49.566Z,1004.71
2022-11-07T04:21:22.456Z,1004.73
2022-11-07T04:23:55.581Z,1004.75
2022-11-07T04:26:28.617Z,1004.76
2022-11-07T04:29:01.583Z,1004.76
2022-11-07T04:31:34.207Z,1004.78
2022-11-07T04:34:07.371Z,1004.79
2022-11-07T04:36:40.337Z,1004.83
2022-11-07T04:39:13.538Z,1004.85
2022-11-07T04:41:46.519Z,1004.86
2022-11-07T04:44:19.685Z,1004.85
2022-11-07T04:46:53.553Z,1004.86
2022-11-07T04:49:26.637Z,1004.87
2022-11-07T04:51:59.234Z,1004.85
2022-11-07T04:54:32.752Z,1004.84
2022-11-07T04:57:05.593Z,1004.84
2022-11-07T04:59:38.558Z,1004.83
2022-11-07T05:02:11.670Z,1004.80
2022-11-07T05:04:44.288Z,1004.79
2022-11-07T05:07:17.263Z,1004.77
2022-11-07T05:09:50.470Z,1004.77
2022-11-07T05:12:23.403Z,1004.77
2022-11-07T05:14:56.291Z,1004.76
2022-11-07T05:17:29.638Z,1004.75
2022-11-07T05:20:02.574Z,1004.75
2022-11-07T05:22:35.693Z,1004.77
2022-11-07T05:25:08.599Z,1004.78
2022-11-07T05:27:41.678Z,1004.77
2022-11-07T05:30:14.571Z,1004.75
2022-11-07T05:32:47.338Z,1004.74
2022-11-07T05:35:20.684Z,1004.74
2022-11-07T05:37:53.546Z,1004.75
2022-11-07T05:40:26.631Z,1004.74
2022-11-07T05:42:59.700Z,1004.73
2022-11-07T05:45:32.697Z,1004.75
2022-11-07T05:48:05.708Z,1004.74
2022-11-07T05:50:38.360Z,1004.73
2022-11-07T05:53:11.909Z,1004.74
2022-11-07T05:55:44.857Z,1004.76
2022-11-07T05:58:20.490Z,1004.77
2022-11-07T06:00:53.734Z,1004.76
2022-11-07T06:03:30.614Z,1004.78
2022-11-07T06:06:03.753Z,1004.78
2022-11-07T06:08:36.651Z,1004.79
2022-11-07T06:11:09.796Z,1004.80
2022-11-07T06:13:42.701Z,1004.81
2022-11-07T06:16:15.740Z,1004.82
2022-11-07T06:18:48.722Z,1004.81
2022-11-07T06:21:21.702Z,1004.80
2022-11-07T06:23:54.568Z,1004.83
2022-11-07T06:26:27.694Z,1004.86
2022-11-07T06:29:00.777Z,1004.88
2022-11-07T06:31:33.665Z,1004.89
2022-11-07T06:34:06.765Z,1004.92
2022-11-07T06:36:39.705Z,1004.95
2022-11-07T06:39:12.816Z,1004.98
2022-11-07T06:41:45.684Z,1005.00
2022-11-07T06:44:18.802Z,1005.00
2022-11-07T06:46:51.772Z,1005.03
2022-11-07T06:49:24.782Z,1005.04
2022-11-07T06:51:57.755Z,1005.06
2022-11-07T06:54:30.572Z,1005.08
2022-11-07T06:57:03.656Z,1005.09
2022-11-07T06:59:36.442Z,1005.11
2022-11-07T07:02:09.905Z,1005.13
2022-11-07T07:04:42.725Z,1005.14
2022-11-07T07:07:15.741Z,1005.16
2022-11-07T07:09:48.774Z,1005.19
2022-11-07T07:12:21.854Z,1005.23
2022-11-07T07:14:54.842Z,1005.24
2022-11-07T07:17:27.712Z,1005.26
2022-11-07T07:20:00.740Z,1005.29
2022-11-07T07:22:33.841Z,1005.32
2022-11-07T07:25:06.772Z,1005.35
2022-11-07T07:27:42.797Z,1005.37
2022-11-07T07:30:15.765Z,1005.39
2022-11-07T07:32:48.775Z,1005.41
2022-11-07T07:35:21.822Z,1005.44
2022-11-07T07:37:54.895Z,1005.45
2022-11-07T07:40:27.866Z,1005.46
2022-11-07T07:43:00.969Z,1005.49
2022-11-07T07:45:33.916Z,1005.51
2022-11-07T07:48:06.854Z,1005.53
2022-11-07T07:50:39.612Z,1005.55
2022-11-07T07:53:12.993Z,1005.56
2022-11-07T07:55:45.923Z,1005.56
2022-11-07T07:58:18.654Z,1005.60
2022-11-07T08:00:51.896Z,1005.61
2022-11-07T08:03:24.602Z,1005.61
2022-11-07T08:05:57.875Z,1005.64
2022-11-07T08:08:36.841Z,1005.64
2022-11-07T08:11:03.939Z,1005.65
2022-11-07T08:13:36.849Z,1005.65
2022-11-07T08:16:09.801Z,1005.66
2022-11-07T08:18:42.847Z,1005.66
2022-11-07T08:21:15.935Z,1005.66
2022-11-07T08:23:48.914Z,1005.67
2022-11-07T08:26:21.861Z,1005.67
2022-11-07T08:28:55.121Z,1005.68
2022-11-07T08:31:27.962Z,1005.68
2022-11-07T08:34:00.977Z,1005.69
2022-11-07T08:36:33.923Z,1005.72
2022-11-07T08:39:06.905Z,1005.72
2022-11-07T08:41:39.856Z,1005.73
2022-11-07T08:44:12.898Z,1005.75
2022-11-07T08:46:45.857Z,1005.75
2022-11-07T08:49:18.971Z,1005.77
2022-11-07T08:51:51.903Z,1005.78
2022-11-07T08:54:24.966Z,1005.79
2022-11-07T08:56:57.916Z,1005.78
2022-11-07T08:59:31.020Z,1005.78
2022-11-07T09:02:47.364Z,1005.79
2022-11-07T09:04:36.982Z,1005.80
2022-11-07T09:07:09.935Z,1005.80
2022-11-07T09:09:43.008Z,1005.82
2022-11-07T09:12:16.030Z,1005.84
2022-11-07T09:14:48.938Z,1005.87
2022-11-07T09:17:22.043Z,1005.89
2022-11-07T09:19:54.992Z,1005.90
2022-11-07T09:22:27.973Z,1005.92
2022-11-07T09:25:00.915Z,1005.94
2022-11-07T09:27:34.020Z,1005.94
2022-11-07T09:30:07.081Z,1005.94
2022-11-07T09:32:47.247Z,1005.95
2022-11-07T09:35:13.049Z,1005.97
2022-11-07T09:37:46.007Z,1005.96
2022-11-07T09:40:19.049Z,1005.96
2022-11-07T09:42:52.068Z,1005.92
2022-11-07T09:45:25.029Z,1005.93
2022-11-07T09:47:58.019Z,1005.94
2022-11-07T09:50:31.011Z,1005.94
2022-11-07T09:53:04.015Z,1005.96
2022-11-07T09:55:37.062Z,1005.98
2022-11-07T09:58:09.992Z,1005.97
2022-11-07T10:00:42.966Z,1005.99
2022-11-07T10:03:16.415Z,1006.00
2022-11-07T10:05:49.012Z,1006.01
2022-11-07T10:08:22.065Z,1006.01
2022-11-07T10:10:54.894Z,1006.04
2022-11-07T10:13:28.013Z,1006.08
2022-11-07T10:16:01.070Z,1006.11
2022-11-07T10:18:33.974Z,1006.14
2022-11-07T10:21:35.732Z,1006.17
2022-11-07T10:23:53.972Z,1006.19
2022-11-07T10:26:26.797Z,1006.21
2022-11-07T10:29:00.095Z,1006.24
2022-11-07T10:31:33.132Z,1006.24
2022-11-07T10:34:06.150Z,1006.25
2022-11-07T10:36:39.030Z,1006.26
2022-11-07T10:39:12.026Z,1006.26
2022-11-07T10:41:45.125Z,1006.27
2022-11-07T10:44:18.070Z,1006.26
2022-11-07T10:46:54.370Z,1006.27
2022-11-07T10:49:24.082Z,1006.28
2022-11-07T10:51:57.148Z,1006.29
2022-11-07T10:54:30.122Z,1006.28
2022-11-07T10:57:03.054Z,1006.27
2022-11-07T10:59:36.995Z,1006.26
2022-11-07T11:02:09.119Z,1006.25
2022-11-07T11:04:44.406Z,1006.24
2022-11-07T11:07:15.098Z,1006.25
2022-11-07T11:09:48.109Z,1006.24
2022-11-07T11:12:21.060Z,1006.22
2022-11-07T11:14:54.154Z,1006.19
2022-11-07T11:17:27.309Z,1006.17
2022-11-07T11:20:00.233Z,1006.16
2022-11-07T11:22:33.106Z,1006.15
2022-11-07T11:25:06.105Z,1006.14
2022-11-07T11:27:39.237Z,1006.12
2022-11-07T11:30:12.202Z,1006.08
2022-11-07T11:32:45.147Z,1006.04
2022-11-07T11:35:18.130Z,1006.01
2022-11-07T11:37:51.188Z,1005.97
2022-11-07T11:40:24.247Z,1005.94
2022-11-07T11:42:57.188Z,1005.90
2022-11-07T11:45:29.986Z,1005.86
2022-11-07T11:48:03.248Z,1005.82
2022-11-07T11:50:35.947Z,1005.81
2022-11-07T11:53:09.105Z,1005.78
2022-11-07T11:55:42.241Z,1005.77
2022-11-07T11:58:14.951Z,1005.75
2022-11-07T12:00:48.038Z,1005.72
2022-11-07T12:03:20.946Z,1005.71
2022-11-07T12:05:56.772Z,1005.70
2022-11-07T12:08:29.954Z,1005.68
2022-11-07T12:11:02.936Z,1005.68
2022-11-07T12:13:36.012Z,1005.67
2022-11-07T12:16:08.922Z,1005.65
2022-11-07T12:18:41.956Z,1005.65
2022-11-07T12:21:14.908Z,1005.65
2022-11-07T12:23:47.915Z,1005.66
2022-11-07T12:26:21.045Z,1005.66
2022-11-07T12:28:53.979Z,1005.67
2022-11-07T12:31:27.322Z,1005.68
2022-11-07T12:34:00.352Z,1005.67
2022-11-07T12:36:33.214Z,1005.67
2022-11-07T12:39:06.011Z,1005.66
2022-11-07T12:41:39.129Z,1005.64
2022-11-07T12:44:12.264Z,1005.65
2022-11-07T12:46:45.212Z,1005.62
2022-11-07T12:49:18.306Z,1005.59
2022-11-07T12:51:51.219Z,1005.56
2022-11-07T12:54:24.104Z,1005.53
2022-11-07T12:56:57.084Z,1005.53
2022-11-07T12:59:30.329Z,1005.53
2022-11-07T13:02:03.417Z,1005.50
2022-11-07T13:04:36.267Z,1005.47
2022-11-07T13:07:09.251Z,1005.46
2022-11-07T13:09:41.969Z,1005.45
2022-11-07T13:12:14.986Z,1005.44
2022-11-07T13:14:48.350Z,1005.45
2022-11-07T13:17:21.283Z,1005.46
2022-11-07T13:19:54.288Z,1005.46
2022-11-07T13:22:27.302Z,1005.47
2022-11-07T13:25:05.436Z,1005.50
2022-11-07T13:27:33.077Z,1005.51
2022-11-07T13:30:06.000Z,1005.49
2022-11-07T13:32:39.022Z,1005.47
2022-11-07T13:35:12.310Z,1005.47
2022-11-07T13:37:45.053Z,1005.45
2022-11-07T13:40:18.060Z,1005.43
2022-11-07T13:42:51.068Z,1005.38
2022-11-07T13:45:24.056Z,1005.34
2022-11-07T13:47:57.336Z,1005.32
2022-11-07T13:50:30.172Z,1005.31
2022-11-07T13:53:03.108Z,1005.31
2022-11-07T13:55:38.158Z,1005.31
2022-11-07T13:58:11.429Z,1005.32
2022-11-07T14:00:44.322Z,1005.33
2022-11-07T14:03:17.771Z,1005.36
2022-11-07T14:05:50.406Z,1005.34
2022-11-07T14:08:23.434Z,1005.34
2022-11-07T14:10:56.419Z,1005.33
2022-11-07T14:13:29.382Z,1005.32
2022-11-07T14:16:02.390Z,1005.33
2022-11-07T14:18:35.421Z,1005.36
2022-11-07T14:21:08.511Z,1005.38
2022-11-07T14:23:41.451Z,1005.40
2022-11-07T14:26:14.363Z,1005.44
2022-11-07T14:28:47.412Z,1005.47
2022-11-07T14:31:20.449Z,1005.50
2022-11-07T14:33:53.183Z,1005.53
2022-11-07T14:36:26.472Z,1005.55
2022-11-07T14:38:59.271Z,1005.55
2022-11-07T14:41:32.104Z,1005.55
2022-11-07T14:44:05.310Z,1005.56
2022-11-07T14:46:38.270Z,1005.56
2022-11-07T14:49:11.125Z,1005.57
2022-11-07T14:51:44.488Z,1005.57
2022-11-07T14:54:17.204Z,1005.56
2022-11-07T14:56:50.529Z,1005.56
2022-11-07T14:59:23.491Z,1005.56
2022-11-07T15:02:10.655Z,1005.57
2022-11-07T15:04:43.462Z,1005.59
2022-11-07T15:07:16.513Z,1005.57
2022-11-07T15:09:49.444Z,1005.58
2022-11-07T15:12:22.244Z,1005.59
2022-11-07T15:14:55.473Z,1005.59
2022-11-07T15:17:28.296Z,1005.59
2022-11-07T15:20:01.357Z,1005.59
2022-11-07T15:22:34.284Z,1005.57
2022-11-07T15:25:07.314Z,1005.56
2022-11-07T15:27:40.387Z,1005.56
2022-11-07T15:30:13.308Z,1005.55
2022-11-07T15:32:46.495Z,1005.55
2022-11-07T15:37:52.599Z,1005.55
2022-11-07T15:40:25.466Z,1005.57
2022-11-07T15:42:58.608Z,1005.57
2022-11-07T15:45:31.193Z,1005.59
2022-11-07T15:48:04.206Z,1005.62
2022-11-07T15:50:37.212Z,1005.63
2022-11-07T15:53:10.631Z,1005.64
2022-11-07T15:55:43.605Z,1005.65
2022-11-07T15:58:16.479Z,1005.64
2022-11-07T16:00:49.307Z,1005.64
2022-11-07T16:03:22.383Z,1005.66
2022-11-07T16:05:55.363Z,1005.67
2022-11-07T16:08:28.282Z,1005.68
2022-11-07T16:11:01.330Z,1005.68
2022-11-07T16:13:34.348Z,1005.65
2022-11-07T16:16:07.513Z,1005.63
2022-11-07T16:21:14.570Z,1005.61
2022-11-07T16:23:47.539Z,1005.58
2022-11-07T16:26:20.614Z,1005.57
2022-11-07T16:28:53.614Z,1005.57
2022-11-07T16:31:26.683Z,1005.57
2022-11-07T16:33:59.708Z,1005.57
2022-11-07T16:36:32.626Z,1005.56
2022-11-07T16:39:05.600Z,1005.57
2022-11-07T16:41:38.444Z,1005.59
2022-11-07T16:44:11.324Z,1005.62
2022-11-07T16:46:44.408Z,1005.65
2022-11-07T16:49:17.354Z,1005.67
2022-11-07T16:51:50.303Z,1005.68
2022-11-07T16:54:23.639Z,1005.68
2022-11-07T16:56:56.722Z,1005.66
2022-11-07T16:59:29.613Z,1005.65
2022-11-07T17:02:05.457Z,1005.64
2022-11-07T17:04:35.374Z,1005.62
2022-11-07T17:07:08.306Z,1005.61
2022-11-07T17:09:41.355Z,1005.61
2022-11-07T17:12:14.377Z,1005.62
2022-11-07T17:14:47.332Z,1005.63
2022-11-07T17:17:20.553Z,1005.65
2022-11-07T17:19:53.392Z,1005.64
2022-11-07T17:22:26.531Z,1005.64
2022-11-07T17:25:13.291Z,1005.62
2022-11-07T17:27:46.442Z,1005.62
2022-11-07T17:30:19.530Z,1005.63
2022-11-07T17:32:52.754Z,1005.62
2022-11-07T17:35:32.022Z,1005.62
2022-11-07T17:37:58.410Z,1005.62
2022-11-07T17:40:31.406Z,1005.60
2022-11-07T17:43:04.694Z,1005.61
2022-11-07T17:45:37.395Z,1005.61
2022-11-07T17:48:10.509Z,1005.64
2022-11-07T17:50:43.383Z,1005.65
2022-11-07T17:53:16.557Z,1005.68
2022-11-07T17:55:49.429Z,1005.69
2022-11-07T17:58:22.386Z,1005.71
2022-11-07T18:00:55.391Z,1005.73
2022-11-07T18:03:28.413Z,1005.74
2022-11-07T18:06:01.502Z,1005.76
2022-11-07T18:08:51.263Z,1005.77
2022-11-07T18:11:07.437Z,1005.76
2022-11-07T18:13:40.626Z,1005.77
2022-11-07T18:16:19.757Z,1005.77
2022-11-07T18:18:52.721Z,1005.77
2022-11-07T18:21:25.465Z,1005.80
2022-11-07T18:23:59.729Z,1005.80
2022-11-07T18:26:32.813Z,1005.80
2022-11-07T18:29:05.725Z,1005.79
2022-11-07T18:31:38.435Z,1005.80
2022-11-07T18:34:11.724Z,1005.78
2022-11-07T18:36:44.721Z,1005.77
2022-11-07T18:39:17.783Z,1005.74
2022-11-07T18:41:50.572Z,1005.73
2022-11-07T18:44:23.712Z,1005.72
2022-11-07T18:46:56.471Z,1005.72
2022-11-07T18:49:29.836Z,1005.70
2022-11-07T18:52:16.696Z,1005.71
2022-11-07T18:54:49.582Z,1005.72
2022-11-07T18:57:22.574Z,1005.70
2022-11-07T18:59:55.616Z,1005.70
2022-11-07T19:02:28.829Z,1005.69
2022-11-07T19:05:01.794Z,1005.67
2022-11-07T19:07:34.625Z,1005.65
2022-11-07T19:10:07.779Z,1005.65
2022-11-07T19:12:40.606Z,1005.64
2022-11-07T19:15:13.511Z,1005.66
2022-11-07T19:17:46.515Z,1005.67
2022-11-07T19:20:19.612Z,1005.67
2022-11-07T19:22:52.708Z,1005.67
2022-11-07T19:25:25.770Z,1005.68
2022-11-07T19:27:58.891Z,1005.71
2022-11-07T19:30:31.852Z,1005.71
2022-11-07T19:33:19.246Z,1005.72
2022-11-07T19:35:51.698Z,1005.70
2022-11-07T19:38:24.912Z,1005.68
2022-11-07T19:40:57.650Z,1005.65
2022-11-07T19:43:30.677Z,1005.65
2022-11-07T19:46:03.608Z,1005.65
2022-11-07T19:48:36.588Z,1005.66
2022-11-07T19:51:09.806Z,1005.67
2022-11-07T19:53:42.976Z,1005.68
2022-11-07T19:56:15.973Z,1005.69
2022-11-07T19:58:48.978Z,1005.70
2022-11-07T20:01:21.873Z,1005.72
2022-11-07T20:03:54.903Z,1005.73
2022-11-07T20:06:27.929Z,1005.73
2022-11-07T20:09:06.873Z,1005.74
2022-11-07T20:11:40.033Z,1005.75
2022-11-07T20:14:12.886Z,1005.76
2022-11-07T20:16:45.911Z,1005.78
2022-11-07T20:19:19.048Z,1005.78
2022-11-07T20:21:52.002Z,1005.79
2022-11-07T20:24:24.598Z,1005.77
2022-11-07T20:26:57.730Z,1005.78
2022-11-07T20:29:30.793Z,1005.77
2022-11-07T20:32:03.890Z,1005.75
2022-11-07T20:34:36.619Z,1005.74
2022-11-07T20:37:09.626Z,1005.76
2022-11-07T20:39:42.650Z,1005.78
2022-11-07T20:42:15.649Z,1005.80
2022-11-07T20:44:48.796Z,1005.82
2022-11-07T20:47:21.648Z,1005.84
2022-11-07T20:49:54.681Z,1005.86
2022-11-07T20:52:28.061Z,1005.85
2022-11-07T20:55:00.985Z,1005.86
2022-11-07T20:57:47.944Z,1005.87
2022-11-07T21:00:34.761Z,1005.87
2022-11-07T21:03:07.954Z,1005.89
2022-11-07T21:05:41.029Z,1005.89
2022-11-07T21:08:13.974Z,1005.91
2022-11-07T21:10:46.950Z,1005.91
2022-11-07T21:13:20.241Z,1005.91
2022-11-07T21:15:54.101Z,1005.91
2022-11-07T21:18:27.012Z,1005.92
2022-11-07T21:21:00.103Z,1005.91
2022-11-07T21:23:32.894Z,1005.88
2022-11-07T21:26:05.821Z,1005.88
2022-11-07T21:28:38.718Z,1005.87
2022-11-07T21:31:12.053Z,1005.84
2022-11-07T21:33:44.789Z,1005.83
2022-11-07T21:36:17.990Z,1005.80
2022-11-07T21:38:51.123Z,1005.75
2022-11-07T21:41:24.012Z,1005.72
2022-11-07T21:43:57.117Z,1005.70
2022-11-07T21:46:30.073Z,1005.68
2022-11-07T21:49:03.227Z,1005.67
2022-11-07T21:51:38.987Z,1005.67
2022-11-07T21:54:12.024Z,1005.66
2022-11-07T21:56:45.063Z,1005.64
2022-11-07T21:59:18.025Z,1005.62
2022-11-07T22:01:51.223Z,1005.60
2022-11-07T22:04:24.089Z,1005.56
2022-11-07T22:06:57.055Z,1005.53
2022-11-07T22:09:30.166Z,1005.51
2022-11-07T22:12:03.078Z,1005.49
2022-11-07T22:14:36.160Z,1005.47
2022-11-07T22:17:09.101Z,1005.47
2022-11-07T22:19:41.784Z,1005.43
2022-11-07T22:22:15.075Z,1005.42
2022-11-07T22:24:48.165Z,1005.39
2022-11-07T22:27:21.038Z,1005.36
2022-11-07T22:29:54.133Z,1005.33
2022-11-07T22:32:27.165Z,1005.29
2022-11-07T22:35:02.621Z,1005.29
2022-11-07T22:37:33.089Z,1005.26
2022-11-07T22:40:06.142Z,1005.27
2022-11-07T22:42:53.161Z,1005.25
2022-11-07T22:45:26.115Z,1005.25
2022-11-07T22:47:59.233Z,1005.21
2022-11-07T22:50:31.943Z,1005.16
2022-11-07T22:53:05.227Z,1005.12
2022-11-07T22:55:38.163Z,1005.08
2022-11-07T22:58:11.125Z,1005.05
2022-11-07T23:00:44.131Z,1005.04
2022-11-07T23:03:17.276Z,1005.02
2022-11-07T23:05:50.110Z,1004.99
2022-11-07T23:08:23.278Z,1004.99
2022-11-07T23:11:14.382Z,1004.99
2022-11-07T23:13:29.142Z,1005.00
2022-11-07T23:16:02.239Z,1005.00
2022-11-07T23:18:35.427Z,1005.00
2022-11-07T23:21:09.120Z,1004.99
2022-11-07T23:23:42.228Z,1005.01
2022-11-07T23:26:15.277Z,1005.02
2022-11-07T23:28:48.170Z,1005.04
2022-11-07T23:31:21.290Z,1005.03
2022-11-07T23:33:54.241Z,1005.05
2022-11-07T23:36:27.174Z,1005.05
2022-11-07T23:39:00.274Z,1005.05
2022-11-07T23:41:33.225Z,1005.05
2022-11-07T23:44:06.294Z,1005.07
2022-11-07T23:46:39.243Z,1005.06
2022-11-07T23:49:14.711Z,1005.05
2022-11-07T23:51:45.241Z,1005.06
2022-11-07T23:54:18.214Z,1005.06
2022-11-07T23:56:51.283Z,1005.06
2022-11-07T23:59:24.292Z,1005.04
